sensor_id;sensor_type;location;lat;lon;timestamp;P1;durP1;ratioP1;P2;durP2;ratioP2
18228;SDS011;9239;50.932;3.142;2022-11-20T00:01:07;33.03;;;22.37;;
18228;SDS011;9239;50.932;3.142;2022-11-20T00:03:35;35.37;;;22.83;;
18228;SDS011;9239;50.932;3.142;2022-11-20T00:06:03;36.37;;;22.30;;
18228;SDS011;9239;50.932;3.142;2022-11-20T00:08:38;34.87;;;23.03;;
18228;SDS011;9239;50.932;3.142;2022-11-20T00:11:05;35.87;;;23.10;;
18228;SDS011;9239;50.932;3.142;2022-11-20T00:13:33;35.83;;;22.73;;
18228;SDS011;9239;50.932;3.142;2022-11-20T00:16:01;36.77;;;22.70;;
18228;SDS011;9239;50.932;3.142;2022-11-20T00:18:30;36.20;;;23.10;;
18228;SDS011;9239;50.932;3.142;2022-11-20T00:21:02;34.37;;;22.77;;
18228;SDS011;9239;50.932;3.142;2022-11-20T00:23:29;36.73;;;22.63;;
18228;SDS011;9239;50.932;3.142;2022-11-20T00:25:56;34.17;;;22.57;;
18228;SDS011;9239;50.932;3.142;2022-11-20T00:28:27;32.33;;;21.83;;
18228;SDS011;9239;50.932;3.142;2022-11-20T00:30:59;32.20;;;21.57;;
18228;SDS011;9239;50.932;3.142;2022-11-20T00:33:28;36.13;;;22.90;;
18228;SDS011;9239;50.932;3.142;2022-11-20T00:35:59;37.17;;;22.93;;
18228;SDS011;9239;50.932;3.142;2022-11-20T00:38:27;34.23;;;22.87;;
18228;SDS011;9239;50.932;3.142;2022-11-20T00:40:57;34.33;;;22.03;;
18228;SDS011;9239;50.932;3.142;2022-11-20T00:43:24;37.30;;;23.27;;
18228;SDS011;9239;50.932;3.142;2022-11-20T00:45:57;34.63;;;23.07;;
18228;SDS011;9239;50.932;3.142;2022-11-20T00:48:24;33.63;;;22.77;;
18228;SDS011;9239;50.932;3.142;2022-11-20T00:50:51;38.37;;;24.03;;
18228;SDS011;9239;50.932;3.142;2022-11-20T00:53:19;34.60;;;23.33;;
18228;SDS011;9239;50.932;3.142;2022-11-20T00:55:53;37.50;;;24.23;;
18228;SDS011;9239;50.932;3.142;2022-11-20T00:58:22;45.60;;;26.43;;
18228;SDS011;9239;50.932;3.142;2022-11-20T01:00:50;47.30;;;27.90;;
18228;SDS011;9239;50.932;3.142;2022-11-20T01:03:17;41.63;;;25.90;;
18228;SDS011;9239;50.932;3.142;2022-11-20T01:05:44;43.77;;;26.50;;
18228;SDS011;9239;50.932;3.142;2022-11-20T01:08:11;45.57;;;27.37;;
18228;SDS011;9239;50.932;3.142;2022-11-20T01:10:39;44.40;;;27.00;;
18228;SDS011;9239;50.932;3.142;2022-11-20T01:13:06;49.30;;;28.90;;
18228;SDS011;9239;50.932;3.142;2022-11-20T01:15:50;51.27;;;30.93;;
18228;SDS011;9239;50.932;3.142;2022-11-20T01:18:17;53.27;;;30.33;;
18228;SDS011;9239;50.932;3.142;2022-11-20T01:20:44;48.53;;;28.67;;
18228;SDS011;9239;50.932;3.142;2022-11-20T01:23:11;47.47;;;27.17;;
18228;SDS011;9239;50.932;3.142;2022-11-20T01:25:39;48.40;;;28.37;;
18228;SDS011;9239;50.932;3.142;2022-11-20T01:28:06;55.00;;;27.63;;
18228;SDS011;9239;50.932;3.142;2022-11-20T01:30:33;45.20;;;25.90;;
18228;SDS011;9239;50.932;3.142;2022-11-20T01:33:00;51.43;;;29.87;;
18228;SDS011;9239;50.932;3.142;2022-11-20T01:35:27;53.67;;;28.90;;
18228;SDS011;9239;50.932;3.142;2022-11-20T01:37:53;45.80;;;27.03;;
18228;SDS011;9239;50.932;3.142;2022-11-20T01:40:20;44.23;;;26.03;;
18228;SDS011;9239;50.932;3.142;2022-11-20T01:42:52;49.97;;;29.20;;
18228;SDS011;9239;50.932;3.142;2022-11-20T01:45:57;43.80;;;27.20;;
18228;SDS011;9239;50.932;3.142;2022-11-20T01:48:27;48.77;;;28.17;;
18228;SDS011;9239;50.932;3.142;2022-11-20T01:50:58;52.53;;;30.67;;
18228;SDS011;9239;50.932;3.142;2022-11-20T01:53:27;48.20;;;28.97;;
18228;SDS011;9239;50.932;3.142;2022-11-20T01:55:59;54.10;;;29.63;;
18228;SDS011;9239;50.932;3.142;2022-11-20T01:58:32;57.43;;;31.30;;
18228;SDS011;9239;50.932;3.142;2022-11-20T02:01:01;56.90;;;32.67;;
18228;SDS011;9239;50.932;3.142;2022-11-20T02:03:29;60.60;;;33.57;;
18228;SDS011;9239;50.932;3.142;2022-11-20T02:05:57;63.60;;;35.53;;
18228;SDS011;9239;50.932;3.142;2022-11-20T02:08:30;61.07;;;34.23;;
18228;SDS011;9239;50.932;3.142;2022-11-20T02:10:58;55.30;;;35.23;;
18228;SDS011;9239;50.932;3.142;2022-11-20T02:13:25;59.43;;;34.13;;
18228;SDS011;9239;50.932;3.142;2022-11-20T02:16:18;63.53;;;34.97;;
18228;SDS011;9239;50.932;3.142;2022-11-20T02:18:48;66.10;;;35.63;;
18228;SDS011;9239;50.932;3.142;2022-11-20T02:21:27;61.33;;;36.07;;
18228;SDS011;9239;50.932;3.142;2022-11-20T02:24:10;65.30;;;35.63;;
18228;SDS011;9239;50.932;3.142;2022-11-20T02:26:41;59.67;;;32.40;;
18228;SDS011;9239;50.932;3.142;2022-11-20T02:29:11;63.40;;;34.73;;
18228;SDS011;9239;50.932;3.142;2022-11-20T02:31:40;70.00;;;36.30;;
18228;SDS011;9239;50.932;3.142;2022-11-20T02:34:09;62.70;;;33.63;;
18228;SDS011;9239;50.932;3.142;2022-11-20T02:36:36;65.20;;;34.07;;
18228;SDS011;9239;50.932;3.142;2022-11-20T02:39:06;70.40;;;34.57;;
18228;SDS011;9239;50.932;3.142;2022-11-20T02:41:36;68.67;;;37.03;;
18228;SDS011;9239;50.932;3.142;2022-11-20T02:44:04;66.63;;;35.07;;
18228;SDS011;9239;50.932;3.142;2022-11-20T02:46:31;65.20;;;35.70;;
18228;SDS011;9239;50.932;3.142;2022-11-20T02:48:58;75.90;;;37.57;;
18228;SDS011;9239;50.932;3.142;2022-11-20T02:51:26;70.03;;;37.13;;
18228;SDS011;9239;50.932;3.142;2022-11-20T02:53:53;68.43;;;36.43;;
18228;SDS011;9239;50.932;3.142;2022-11-20T02:56:20;78.07;;;38.80;;
18228;SDS011;9239;50.932;3.142;2022-11-20T02:58:48;76.23;;;38.17;;
18228;SDS011;9239;50.932;3.142;2022-11-20T03:01:15;73.07;;;35.43;;
18228;SDS011;9239;50.932;3.142;2022-11-20T03:03:42;68.67;;;38.03;;
18228;SDS011;9239;50.932;3.142;2022-11-20T03:06:09;76.40;;;37.67;;
18228;SDS011;9239;50.932;3.142;2022-11-20T03:08:39;75.50;;;36.07;;
18228;SDS011;9239;50.932;3.142;2022-11-20T03:11:13;71.17;;;36.53;;
18228;SDS011;9239;50.932;3.142;2022-11-20T03:13:40;67.57;;;34.10;;
18228;SDS011;9239;50.932;3.142;2022-11-20T03:16:14;60.93;;;32.60;;
18228;SDS011;9239;50.932;3.142;2022-11-20T03:18:43;69.33;;;36.13;;
18228;SDS011;9239;50.932;3.142;2022-11-20T03:21:16;66.93;;;35.30;;
18228;SDS011;9239;50.932;3.142;2022-11-20T03:23:53;69.43;;;36.70;;
18228;SDS011;9239;50.932;3.142;2022-11-20T03:26:35;69.43;;;35.67;;
18228;SDS011;9239;50.932;3.142;2022-11-20T03:29:06;60.67;;;32.40;;
18228;SDS011;9239;50.932;3.142;2022-11-20T03:31:34;62.53;;;33.07;;
18228;SDS011;9239;50.932;3.142;2022-11-20T03:34:05;70.00;;;35.63;;
18228;SDS011;9239;50.932;3.142;2022-11-20T03:36:32;67.70;;;36.23;;
18228;SDS011;9239;50.932;3.142;2022-11-20T03:38:59;64.97;;;34.53;;
18228;SDS011;9239;50.932;3.142;2022-11-20T03:41:27;64.30;;;34.53;;
18228;SDS011;9239;50.932;3.142;2022-11-20T03:43:55;66.03;;;36.07;;
18228;SDS011;9239;50.932;3.142;2022-11-20T03:46:23;63.97;;;32.67;;
18228;SDS011;9239;50.932;3.142;2022-11-20T03:48:52;62.97;;;35.97;;
18228;SDS011;9239;50.932;3.142;2022-11-20T03:51:20;69.80;;;35.73;;
18228;SDS011;9239;50.932;3.142;2022-11-20T03:53:49;61.33;;;33.73;;
18228;SDS011;9239;50.932;3.142;2022-11-20T03:56:19;58.77;;;31.13;;
18228;SDS011;9239;50.932;3.142;2022-11-20T03:58:48;64.13;;;34.27;;
18228;SDS011;9239;50.932;3.142;2022-11-20T04:01:15;70.27;;;32.80;;
18228;SDS011;9239;50.932;3.142;2022-11-20T04:03:43;67.17;;;35.03;;
18228;SDS011;9239;50.932;3.142;2022-11-20T04:06:13;63.90;;;33.83;;
18228;SDS011;9239;50.932;3.142;2022-11-20T04:08:41;64.70;;;34.57;;
18228;SDS011;9239;50.932;3.142;2022-11-20T04:11:09;59.97;;;33.47;;
18228;SDS011;9239;50.932;3.142;2022-11-20T04:13:37;62.60;;;32.40;;
18228;SDS011;9239;50.932;3.142;2022-11-20T04:16:04;62.30;;;33.40;;
18228;SDS011;9239;50.932;3.142;2022-11-20T04:18:32;56.93;;;32.57;;
18228;SDS011;9239;50.932;3.142;2022-11-20T04:20:59;61.27;;;31.43;;
18228;SDS011;9239;50.932;3.142;2022-11-20T04:23:28;55.03;;;33.33;;
18228;SDS011;9239;50.932;3.142;2022-11-20T04:26:00;61.87;;;32.33;;
18228;SDS011;9239;50.932;3.142;2022-11-20T04:28:28;59.20;;;31.77;;
18228;SDS011;9239;50.932;3.142;2022-11-20T04:31:00;58.60;;;31.83;;
18228;SDS011;9239;50.932;3.142;2022-11-20T04:33:28;59.90;;;30.77;;
18228;SDS011;9239;50.932;3.142;2022-11-20T04:35:55;55.30;;;30.57;;
18228;SDS011;9239;50.932;3.142;2022-11-20T04:38:28;58.20;;;30.37;;
18228;SDS011;9239;50.932;3.142;2022-11-20T04:40:56;58.30;;;31.60;;
18228;SDS011;9239;50.932;3.142;2022-11-20T04:43:24;56.30;;;29.33;;
18228;SDS011;9239;50.932;3.142;2022-11-20T04:45:51;55.63;;;29.17;;
18228;SDS011;9239;50.932;3.142;2022-11-20T04:48:18;55.63;;;29.70;;
18228;SDS011;9239;50.932;3.142;2022-11-20T04:50:45;56.70;;;30.37;;
18228;SDS011;9239;50.932;3.142;2022-11-20T04:53:12;47.90;;;27.87;;
18228;SDS011;9239;50.932;3.142;2022-11-20T04:55:40;53.70;;;28.90;;
18228;SDS011;9239;50.932;3.142;2022-11-20T04:58:07;48.47;;;26.17;;
18228;SDS011;9239;50.932;3.142;2022-11-20T05:00:34;48.47;;;27.30;;
18228;SDS011;9239;50.932;3.142;2022-11-20T05:03:01;47.33;;;27.47;;
18228;SDS011;9239;50.932;3.142;2022-11-20T05:05:27;47.37;;;24.97;;
18228;SDS011;9239;50.932;3.142;2022-11-20T05:07:55;40.80;;;25.50;;
18228;SDS011;9239;50.932;3.142;2022-11-20T05:10:23;48.30;;;26.43;;
18228;SDS011;9239;50.932;3.142;2022-11-20T05:12:51;40.07;;;24.20;;
18228;SDS011;9239;50.932;3.142;2022-11-20T05:15:18;45.83;;;25.57;;
18228;SDS011;9239;50.932;3.142;2022-11-20T05:17:46;39.47;;;24.73;;
18228;SDS011;9239;50.932;3.142;2022-11-20T05:20:14;49.33;;;28.37;;
18228;SDS011;9239;50.932;3.142;2022-11-20T05:22:41;50.03;;;26.53;;
18228;SDS011;9239;50.932;3.142;2022-11-20T05:25:08;48.93;;;27.57;;
18228;SDS011;9239;50.932;3.142;2022-11-20T05:27:35;46.70;;;26.50;;
18228;SDS011;9239;50.932;3.142;2022-11-20T05:30:03;47.27;;;26.50;;
18228;SDS011;9239;50.932;3.142;2022-11-20T05:32:31;52.60;;;27.33;;
18228;SDS011;9239;50.932;3.142;2022-11-20T05:34:58;44.73;;;27.47;;
18228;SDS011;9239;50.932;3.142;2022-11-20T05:37:25;50.83;;;28.03;;
18228;SDS011;9239;50.932;3.142;2022-11-20T05:39:51;47.53;;;27.00;;
18228;SDS011;9239;50.932;3.142;2022-11-20T05:42:18;48.73;;;27.73;;
18228;SDS011;9239;50.932;3.142;2022-11-20T05:44:58;47.73;;;26.80;;
18228;SDS011;9239;50.932;3.142;2022-11-20T05:47:27;51.33;;;28.43;;
18228;SDS011;9239;50.932;3.142;2022-11-20T05:49:57;48.80;;;27.30;;
18228;SDS011;9239;50.932;3.142;2022-11-20T05:52:24;47.50;;;26.37;;
18228;SDS011;9239;50.932;3.142;2022-11-20T05:54:53;45.20;;;25.10;;
18228;SDS011;9239;50.932;3.142;2022-11-20T05:57:20;47.23;;;25.63;;
18228;SDS011;9239;50.932;3.142;2022-11-20T05:59:47;45.60;;;24.80;;
18228;SDS011;9239;50.932;3.142;2022-11-20T06:02:14;42.33;;;24.47;;
18228;SDS011;9239;50.932;3.142;2022-11-20T06:04:42;43.50;;;24.83;;
18228;SDS011;9239;50.932;3.142;2022-11-20T06:07:09;46.37;;;26.17;;
18228;SDS011;9239;50.932;3.142;2022-11-20T06:09:36;49.33;;;27.17;;
18228;SDS011;9239;50.932;3.142;2022-11-20T06:12:03;46.67;;;24.30;;
18228;SDS011;9239;50.932;3.142;2022-11-20T06:14:30;40.70;;;24.20;;
18228;SDS011;9239;50.932;3.142;2022-11-20T06:16:57;49.13;;;26.37;;
18228;SDS011;9239;50.932;3.142;2022-11-20T06:19:24;45.33;;;25.40;;
18228;SDS011;9239;50.932;3.142;2022-11-20T06:21:52;50.33;;;27.40;;
18228;SDS011;9239;50.932;3.142;2022-11-20T06:24:19;40.80;;;23.67;;
18228;SDS011;9239;50.932;3.142;2022-11-20T06:26:46;43.37;;;25.13;;
18228;SDS011;9239;50.932;3.142;2022-11-20T06:29:13;47.63;;;27.23;;
18228;SDS011;9239;50.932;3.142;2022-11-20T06:31:40;46.73;;;26.33;;
18228;SDS011;9239;50.932;3.142;2022-11-20T06:34:07;41.70;;;23.67;;
18228;SDS011;9239;50.932;3.142;2022-11-20T06:36:34;47.63;;;25.10;;
18228;SDS011;9239;50.932;3.142;2022-11-20T06:39:02;45.73;;;25.13;;
18228;SDS011;9239;50.932;3.142;2022-11-20T06:41:29;38.27;;;22.77;;
18228;SDS011;9239;50.932;3.142;2022-11-20T06:43:56;43.57;;;24.67;;
18228;SDS011;9239;50.932;3.142;2022-11-20T06:46:23;45.80;;;25.03;;
18228;SDS011;9239;50.932;3.142;2022-11-20T06:48:50;41.80;;;24.40;;
18228;SDS011;9239;50.932;3.142;2022-11-20T06:51:17;43.47;;;24.50;;
18228;SDS011;9239;50.932;3.142;2022-11-20T06:53:44;39.37;;;24.17;;
18228;SDS011;9239;50.932;3.142;2022-11-20T06:56:12;48.93;;;26.07;;
18228;SDS011;9239;50.932;3.142;2022-11-20T06:58:39;44.73;;;26.33;;
18228;SDS011;9239;50.932;3.142;2022-11-20T07:01:07;46.37;;;27.00;;
18228;SDS011;9239;50.932;3.142;2022-11-20T07:03:37;50.13;;;26.83;;
18228;SDS011;9239;50.932;3.142;2022-11-20T07:06:04;57.63;;;29.73;;
18228;SDS011;9239;50.932;3.142;2022-11-20T07:08:32;57.80;;;29.00;;
18228;SDS011;9239;50.932;3.142;2022-11-20T07:11:00;56.40;;;29.13;;
18228;SDS011;9239;50.932;3.142;2022-11-20T07:13:29;55.57;;;29.23;;
18228;SDS011;9239;50.932;3.142;2022-11-20T07:15:59;52.53;;;28.97;;
18228;SDS011;9239;50.932;3.142;2022-11-20T07:18:26;52.07;;;28.17;;
18228;SDS011;9239;50.932;3.142;2022-11-20T07:20:53;51.83;;;29.03;;
18228;SDS011;9239;50.932;3.142;2022-11-20T07:23:20;59.07;;;30.67;;
18228;SDS011;9239;50.932;3.142;2022-11-20T07:25:47;49.87;;;28.13;;
18228;SDS011;9239;50.932;3.142;2022-11-20T07:28:14;53.13;;;27.43;;
18228;SDS011;9239;50.932;3.142;2022-11-20T07:30:42;42.97;;;25.20;;
18228;SDS011;9239;50.932;3.142;2022-11-20T07:33:15;49.57;;;26.40;;
18228;SDS011;9239;50.932;3.142;2022-11-20T07:35:41;41.23;;;24.37;;
18228;SDS011;9239;50.932;3.142;2022-11-20T07:38:08;43.83;;;24.63;;
18228;SDS011;9239;50.932;3.142;2022-11-20T07:40:35;41.90;;;24.57;;
18228;SDS011;9239;50.932;3.142;2022-11-20T07:43:02;44.13;;;26.57;;
18228;SDS011;9239;50.932;3.142;2022-11-20T07:45:29;35.67;;;23.63;;
18228;SDS011;9239;50.932;3.142;2022-11-20T07:47:58;38.13;;;25.70;;
18228;SDS011;9239;50.932;3.142;2022-11-20T07:50:25;41.93;;;25.73;;
18228;SDS011;9239;50.932;3.142;2022-11-20T07:52:52;38.67;;;24.47;;
18228;SDS011;9239;50.932;3.142;2022-11-20T07:55:25;46.47;;;24.43;;
18228;SDS011;9239;50.932;3.142;2022-11-20T07:57:54;35.83;;;23.73;;
18228;SDS011;9239;50.932;3.142;2022-11-20T08:00:21;37.17;;;23.90;;
18228;SDS011;9239;50.932;3.142;2022-11-20T08:02:49;35.87;;;22.60;;
18228;SDS011;9239;50.932;3.142;2022-11-20T08:05:17;30.73;;;21.70;;
18228;SDS011;9239;50.932;3.142;2022-11-20T08:07:44;33.93;;;22.53;;
18228;SDS011;9239;50.932;3.142;2022-11-20T08:10:11;34.97;;;21.00;;
18228;SDS011;9239;50.932;3.142;2022-11-20T08:12:43;35.60;;;21.00;;
18228;SDS011;9239;50.932;3.142;2022-11-20T08:15:28;30.90;;;18.63;;
18228;SDS011;9239;50.932;3.142;2022-11-20T08:17:59;30.90;;;21.10;;
18228;SDS011;9239;50.932;3.142;2022-11-20T08:20:31;31.50;;;20.60;;
18228;SDS011;9239;50.932;3.142;2022-11-20T08:23:00;32.67;;;21.57;;
18228;SDS011;9239;50.932;3.142;2022-11-20T08:25:27;31.10;;;18.90;;
18228;SDS011;9239;50.932;3.142;2022-11-20T08:27:56;31.03;;;19.90;;
18228;SDS011;9239;50.932;3.142;2022-11-20T08:30:23;29.63;;;18.43;;
18228;SDS011;9239;50.932;3.142;2022-11-20T08:32:51;29.73;;;18.87;;
18228;SDS011;9239;50.932;3.142;2022-11-20T08:35:17;26.80;;;18.20;;
18228;SDS011;9239;50.932;3.142;2022-11-20T08:37:47;32.57;;;19.60;;
18228;SDS011;9239;50.932;3.142;2022-11-20T08:40:14;26.07;;;18.00;;
18228;SDS011;9239;50.932;3.142;2022-11-20T08:42:45;29.97;;;19.73;;
18228;SDS011;9239;50.932;3.142;2022-11-20T08:45:13;27.53;;;19.87;;
18228;SDS011;9239;50.932;3.142;2022-11-20T08:47:40;29.63;;;18.73;;
18228;SDS011;9239;50.932;3.142;2022-11-20T08:50:08;28.73;;;18.63;;
18228;SDS011;9239;50.932;3.142;2022-11-20T08:52:35;26.77;;;17.57;;
18228;SDS011;9239;50.932;3.142;2022-11-20T08:55:04;24.70;;;18.13;;
18228;SDS011;9239;50.932;3.142;2022-11-20T08:57:32;26.03;;;16.73;;
18228;SDS011;9239;50.932;3.142;2022-11-20T09:00:00;23.63;;;17.07;;
18228;SDS011;9239;50.932;3.142;2022-11-20T09:02:27;23.73;;;15.50;;
18228;SDS011;9239;50.932;3.142;2022-11-20T09:04:54;18.80;;;15.13;;
18228;SDS011;9239;50.932;3.142;2022-11-20T09:07:21;23.30;;;15.07;;
18228;SDS011;9239;50.932;3.142;2022-11-20T09:09:48;18.57;;;14.57;;
18228;SDS011;9239;50.932;3.142;2022-11-20T09:12:16;18.07;;;14.67;;
18228;SDS011;9239;50.932;3.142;2022-11-20T09:14:43;18.07;;;12.43;;
18228;SDS011;9239;50.932;3.142;2022-11-20T09:17:10;16.20;;;11.73;;
18228;SDS011;9239;50.932;3.142;2022-11-20T09:19:38;14.57;;;11.97;;
18228;SDS011;9239;50.932;3.142;2022-11-20T09:22:06;13.53;;;11.27;;
18228;SDS011;9239;50.932;3.142;2022-11-20T09:24:33;16.37;;;10.87;;
18228;SDS011;9239;50.932;3.142;2022-11-20T09:27:03;15.23;;;10.13;;
18228;SDS011;9239;50.932;3.142;2022-11-20T09:29:32;12.60;;;9.83;;
18228;SDS011;9239;50.932;3.142;2022-11-20T09:31:59;12.27;;;8.93;;
18228;SDS011;9239;50.932;3.142;2022-11-20T09:34:26;9.20;;;7.03;;
18228;SDS011;9239;50.932;3.142;2022-11-20T09:36:57;9.03;;;6.60;;
18228;SDS011;9239;50.932;3.142;2022-11-20T09:39:24;11.53;;;8.23;;
18228;SDS011;9239;50.932;3.142;2022-11-20T09:41:56;7.40;;;5.17;;
18228;SDS011;9239;50.932;3.142;2022-11-20T09:44:52;6.70;;;4.67;;
18228;SDS011;9239;50.932;3.142;2022-11-20T09:47:33;9.30;;;5.30;;
18228;SDS011;9239;50.932;3.142;2022-11-20T09:50:17;5.63;;;4.10;;
18228;SDS011;9239;50.932;3.142;2022-11-20T09:52:55;5.33;;;4.40;;
18228;SDS011;9239;50.932;3.142;2022-11-20T09:55:30;6.63;;;3.43;;
18228;SDS011;9239;50.932;3.142;2022-11-20T09:57:58;4.33;;;3.40;;
18228;SDS011;9239;50.932;3.142;2022-11-20T10:00:27;5.47;;;3.33;;
18228;SDS011;9239;50.932;3.142;2022-11-20T10:02:59;8.17;;;4.03;;
18228;SDS011;9239;50.932;3.142;2022-11-20T10:05:31;6.60;;;3.93;;
18228;SDS011;9239;50.932;3.142;2022-11-20T10:08:07;7.20;;;4.27;;
18228;SDS011;9239;50.932;3.142;2022-11-20T10:10:42;4.77;;;3.50;;
18228;SDS011;9239;50.932;3.142;2022-11-20T10:13:16;6.87;;;3.57;;
18228;SDS011;9239;50.932;3.142;2022-11-20T10:15:55;8.13;;;4.13;;
18228;SDS011;9239;50.932;3.142;2022-11-20T10:18:36;5.17;;;3.40;;
18228;SDS011;9239;50.932;3.142;2022-11-20T10:21:14;6.77;;;3.87;;
18228;SDS011;9239;50.932;3.142;2022-11-20T10:24:05;4.87;;;3.80;;
18228;SDS011;9239;50.932;3.142;2022-11-20T10:26:50;8.70;;;3.77;;
18228;SDS011;9239;50.932;3.142;2022-11-20T10:29:24;7.93;;;3.67;;
18228;SDS011;9239;50.932;3.142;2022-11-20T10:32:01;5.70;;;3.93;;
18228;SDS011;9239;50.932;3.142;2022-11-20T10:34:31;6.20;;;3.67;;
18228;SDS011;9239;50.932;3.142;2022-11-20T10:37:05;4.77;;;3.63;;
18228;SDS011;9239;50.932;3.142;2022-11-20T10:39:39;4.60;;;3.40;;
18228;SDS011;9239;50.932;3.142;2022-11-20T10:42:12;5.43;;;3.50;;
18228;SDS011;9239;50.932;3.142;2022-11-20T10:44:42;7.03;;;3.77;;
18228;SDS011;9239;50.932;3.142;2022-11-20T10:47:30;4.77;;;4.23;;
18228;SDS011;9239;50.932;3.142;2022-11-20T10:49:58;5.40;;;3.97;;
18228;SDS011;9239;50.932;3.142;2022-11-20T10:52:30;6.20;;;4.30;;
18228;SDS011;9239;50.932;3.142;2022-11-20T10:55:06;5.07;;;4.57;;
18228;SDS011;9239;50.932;3.142;2022-11-20T10:57:49;7.53;;;3.77;;
18228;SDS011;9239;50.932;3.142;2022-11-20T11:00:20;7.47;;;4.17;;
18228;SDS011;9239;50.932;3.142;2022-11-20T11:02:52;5.13;;;3.80;;
18228;SDS011;9239;50.932;3.142;2022-11-20T11:05:24;7.70;;;4.70;;
18228;SDS011;9239;50.932;3.142;2022-11-20T11:07:59;6.50;;;4.00;;
18228;SDS011;9239;50.932;3.142;2022-11-20T11:10:28;7.37;;;3.90;;
18228;SDS011;9239;50.932;3.142;2022-11-20T11:13:02;6.83;;;4.47;;
18228;SDS011;9239;50.932;3.142;2022-11-20T11:15:35;4.80;;;4.30;;
18228;SDS011;9239;50.932;3.142;2022-11-20T11:18:07;6.63;;;4.10;;
18228;SDS011;9239;50.932;3.142;2022-11-20T11:20:35;6.00;;;4.87;;
18228;SDS011;9239;50.932;3.142;2022-11-20T11:23:03;6.57;;;4.50;;
18228;SDS011;9239;50.932;3.142;2022-11-20T11:25:30;4.90;;;4.33;;
18228;SDS011;9239;50.932;3.142;2022-11-20T11:27:59;5.83;;;4.50;;
18228;SDS011;9239;50.932;3.142;2022-11-20T11:30:28;4.40;;;3.87;;
18228;SDS011;9239;50.932;3.142;2022-11-20T11:33:04;5.57;;;4.53;;
18228;SDS011;9239;50.932;3.142;2022-11-20T11:35:39;9.40;;;4.40;;
18228;SDS011;9239;50.932;3.142;2022-11-20T11:38:12;7.33;;;4.87;;
18228;SDS011;9239;50.932;3.142;2022-11-20T11:40:43;6.30;;;4.33;;
18228;SDS011;9239;50.932;3.142;2022-11-20T11:43:16;5.73;;;5.17;;
18228;SDS011;9239;50.932;3.142;2022-11-20T11:45:59;7.13;;;5.20;;
18228;SDS011;9239;50.932;3.142;2022-11-20T11:48:28;7.17;;;5.60;;
18228;SDS011;9239;50.932;3.142;2022-11-20T11:50:55;6.90;;;5.60;;
18228;SDS011;9239;50.932;3.142;2022-11-20T11:53:21;6.17;;;5.27;;
18228;SDS011;9239;50.932;3.142;2022-11-20T11:55:54;5.07;;;4.57;;
18228;SDS011;9239;50.932;3.142;2022-11-20T11:58:34;6.63;;;5.20;;
18228;SDS011;9239;50.932;3.142;2022-11-20T12:01:10;6.73;;;5.23;;
18228;SDS011;9239;50.932;3.142;2022-11-20T12:03:52;6.30;;;4.67;;
18228;SDS011;9239;50.932;3.142;2022-11-20T12:06:21;7.13;;;5.30;;
18228;SDS011;9239;50.932;3.142;2022-11-20T12:08:51;6.57;;;5.47;;
18228;SDS011;9239;50.932;3.142;2022-11-20T12:11:23;7.13;;;5.00;;
18228;SDS011;9239;50.932;3.142;2022-11-20T12:13:55;5.03;;;4.20;;
18228;SDS011;9239;50.932;3.142;2022-11-20T12:16:30;6.50;;;4.87;;
18228;SDS011;9239;50.932;3.142;2022-11-20T12:19:04;6.00;;;4.20;;
18228;SDS011;9239;50.932;3.142;2022-11-20T12:21:38;4.73;;;4.30;;
18228;SDS011;9239;50.932;3.142;2022-11-20T12:24:23;4.97;;;4.27;;
18228;SDS011;9239;50.932;3.142;2022-11-20T12:27:11;4.80;;;4.40;;
18228;SDS011;9239;50.932;3.142;2022-11-20T12:29:57;4.93;;;4.53;;
18228;SDS011;9239;50.932;3.142;2022-11-20T12:32:32;8.93;;;4.80;;
18228;SDS011;9239;50.932;3.142;2022-11-20T12:35:35;4.77;;;4.33;;
18228;SDS011;9239;50.932;3.142;2022-11-20T12:38:26;5.73;;;4.30;;
18228;SDS011;9239;50.932;3.142;2022-11-20T12:41:09;5.07;;;4.67;;
18228;SDS011;9239;50.932;3.142;2022-11-20T12:44:03;7.07;;;4.40;;
18228;SDS011;9239;50.932;3.142;2022-11-20T12:47:03;4.73;;;4.20;;
18228;SDS011;9239;50.932;3.142;2022-11-20T12:49:50;5.47;;;3.70;;
18228;SDS011;9239;50.932;3.142;2022-11-20T12:52:28;5.00;;;3.67;;
18228;SDS011;9239;50.932;3.142;2022-11-20T12:55:16;4.30;;;3.60;;
18228;SDS011;9239;50.932;3.142;2022-11-20T12:57:53;3.70;;;3.40;;
18228;SDS011;9239;50.932;3.142;2022-11-20T13:00:28;3.80;;;3.50;;
18228;SDS011;9239;50.932;3.142;2022-11-20T13:03:06;4.00;;;3.50;;
18228;SDS011;9239;50.932;3.142;2022-11-20T13:05:55;3.77;;;3.23;;
18228;SDS011;9239;50.932;3.142;2022-11-20T13:08:32;4.47;;;4.07;;
18228;SDS011;9239;50.932;3.142;2022-11-20T13:11:03;3.73;;;3.53;;
18228;SDS011;9239;50.932;3.142;2022-11-20T13:13:42;3.27;;;3.07;;
18228;SDS011;9239;50.932;3.142;2022-11-20T13:16:19;3.87;;;3.57;;
18228;SDS011;9239;50.932;3.142;2022-11-20T13:18:52;3.73;;;3.43;;
18228;SDS011;9239;50.932;3.142;2022-11-20T13:21:21;3.37;;;3.13;;
18228;SDS011;9239;50.932;3.142;2022-11-20T13:24:05;3.90;;;3.60;;
18228;SDS011;9239;50.932;3.142;2022-11-20T13:26:34;6.27;;;3.93;;
18228;SDS011;9239;50.932;3.142;2022-11-20T13:29:03;7.60;;;4.73;;
18228;SDS011;9239;50.932;3.142;2022-11-20T13:31:37;7.13;;;6.17;;
18228;SDS011;9239;50.932;3.142;2022-11-20T13:34:10;4.77;;;4.20;;
18228;SDS011;9239;50.932;3.142;2022-11-20T13:36:53;4.43;;;4.13;;
18228;SDS011;9239;50.932;3.142;2022-11-20T13:39:26;4.40;;;3.80;;
18228;SDS011;9239;50.932;3.142;2022-11-20T13:41:55;5.20;;;3.50;;
18228;SDS011;9239;50.932;3.142;2022-11-20T13:44:25;5.43;;;3.70;;
18228;SDS011;9239;50.932;3.142;2022-11-20T13:46:57;4.93;;;3.10;;
18228;SDS011;9239;50.932;3.142;2022-11-20T13:49:25;5.20;;;4.00;;
18228;SDS011;9239;50.932;3.142;2022-11-20T13:51:57;5.00;;;4.40;;
18228;SDS011;9239;50.932;3.142;2022-11-20T13:54:46;5.53;;;4.60;;
18228;SDS011;9239;50.932;3.142;2022-11-20T13:57:33;5.27;;;3.93;;
18228;SDS011;9239;50.932;3.142;2022-11-20T14:00:13;5.33;;;3.57;;
18228;SDS011;9239;50.932;3.142;2022-11-20T14:02:42;7.23;;;3.13;;
18228;SDS011;9239;50.932;3.142;2022-11-20T14:05:17;8.13;;;3.40;;
18228;SDS011;9239;50.932;3.142;2022-11-20T14:07:50;6.83;;;3.40;;
18228;SDS011;9239;50.932;3.142;2022-11-20T14:10:23;10.47;;;3.90;;
18228;SDS011;9239;50.932;3.142;2022-11-20T14:12:51;5.43;;;2.83;;
18228;SDS011;9239;50.932;3.142;2022-11-20T14:15:26;8.53;;;3.53;;
18228;SDS011;9239;50.932;3.142;2022-11-20T14:17:55;7.37;;;3.07;;
18228;SDS011;9239;50.932;3.142;2022-11-20T14:20:23;8.03;;;3.63;;
18228;SDS011;9239;50.932;3.142;2022-11-20T14:22:53;8.73;;;3.43;;
18228;SDS011;9239;50.932;3.142;2022-11-20T14:25:21;9.37;;;3.50;;
18228;SDS011;9239;50.932;3.142;2022-11-20T14:27:56;8.93;;;2.73;;
18228;SDS011;9239;50.932;3.142;2022-11-20T14:30:28;7.63;;;2.50;;
18228;SDS011;9239;50.932;3.142;2022-11-20T14:33:02;8.00;;;2.43;;
18228;SDS011;9239;50.932;3.142;2022-11-20T14:35:30;6.97;;;3.17;;
18228;SDS011;9239;50.932;3.142;2022-11-20T14:38:00;6.87;;;2.73;;
18228;SDS011;9239;50.932;3.142;2022-11-20T14:40:30;7.07;;;2.80;;
18228;SDS011;9239;50.932;3.142;2022-11-20T14:43:00;9.00;;;2.57;;
18228;SDS011;9239;50.932;3.142;2022-11-20T14:45:27;9.83;;;3.40;;
18228;SDS011;9239;50.932;3.142;2022-11-20T14:47:55;8.43;;;3.23;;
18228;SDS011;9239;50.932;3.142;2022-11-20T14:50:24;10.57;;;3.53;;
18228;SDS011;9239;50.932;3.142;2022-11-20T14:52:53;12.37;;;4.10;;
18228;SDS011;9239;50.932;3.142;2022-11-20T14:55:25;10.37;;;3.13;;
18228;SDS011;9239;50.932;3.142;2022-11-20T14:57:58;19.77;;;4.43;;
18228;SDS011;9239;50.932;3.142;2022-11-20T15:00:27;9.33;;;2.67;;
18228;SDS011;9239;50.932;3.142;2022-11-20T15:02:55;13.33;;;3.73;;
18228;SDS011;9239;50.932;3.142;2022-11-20T15:05:23;12.57;;;4.13;;